Time;durP1;ratioP1;P1;durP2;ratioP2;P2;SDS_P1;SDS_P2;PMS_P1;PMS_P2;Temp;Humidity;BMP_temperature;BMP_pressure;BME280_temperature;BME280_humidity;BME280_pressure;Samples;Min_cycle;Max_cycle;Signal;HPM_P1;HPM_P2
2021/07/03 00:00:34;;;;;;;10.83;6.77;;;14.60;99.90;;;15.08;100.00;100633.31;3523743;39;100245;-85
2021/07/03 00:03:02;;;;;;;11.70;7.13;;;14.00;99.90;;;15.05;100.00;100642.56;3527904;22;105067;-81
2021/07/03 00:05:30;;;;;;;9.93;6.13;;;14.30;99.90;;;15.04;100.00;100646.28;3478935;39;101634;-84
2021/07/03 00:07:57;;;;;;;9.47;6.43;;;14.60;99.90;;;14.99;100.00;100650.53;3549743;22;105015;-81
2021/07/03 00:10:24;;;;;;;7.17;5.77;;;15.50;99.90;;;14.97;100.00;100650.69;3525445;39;100248;-85
2021/07/03 00:12:51;;;;;;;10.27;6.80;;;14.50;99.90;;;14.95;100.00;100647.38;3545483;22;105447;-81
2021/07/03 00:15:55;;;;;;;10.33;6.73;;;14.90;99.90;;;14.98;100.00;100657.75;3516234;22;105756;-86
2021/07/03 00:19:08;;;;;;;13.17;6.90;;;14.20;99.90;;;14.92;100.00;100646.88;3511498;39;100443;-84
2021/07/03 00:22:20;;;;;;;9.93;6.60;;;14.90;99.90;;;14.85;100.00;100646.72;3498317;40;100397;-84
2021/07/03 00:24:56;;;;;;;18.33;6.83;;;14.20;99.90;;;14.82;100.00;100651.66;3536780;22;101781;-85
2021/07/03 00:27:23;;;;;;;14.60;6.87;;;14.30;99.90;;;14.82;100.00;100651.66;3500720;40;100961;-81
2021/07/03 00:30:29;;;;;;;10.70;6.40;;;14.30;99.90;;;14.83;100.00;100654.16;3591828;22;105850;31
2021/07/03 00:33:05;;;;;;;12.70;6.37;;;14.30;99.90;;;14.78;100.00;100659.25;3568054;22;103454;-86
2021/07/03 00:35:34;;;;;;;10.53;6.43;;;15.20;99.90;;;14.82;100.00;100659.72;3535419;22;102035;-85
2021/07/03 00:38:01;;;;;;;11.03;6.33;;;14.20;99.90;;;14.76;100.00;100663.13;3537698;22;103451;-84
2021/07/03 00:40:28;;;;;;;12.40;7.13;;;14.20;99.90;;;14.71;100.00;100658.28;3593496;22;105475;-85
2021/07/03 00:42:56;;;;;;;10.73;7.43;;;14.30;99.90;;;14.70;100.00;100665.50;3555815;22;101799;-81
2021/07/03 00:45:25;;;;;;;11.40;7.03;;;14.20;99.90;;;14.71;100.00;100669.84;3544467;22;105248;-85
2021/07/03 00:48:30;;;;;;;8.77;6.30;;;14.10;99.90;;;14.68;100.00;100674.78;3543437;22;104216;-85
2021/07/03 00:51:44;;;;;;;11.17;6.23;;;14.20;99.90;;;14.68;100.00;100677.47;3521090;39;102009;-82
2021/07/03 00:54:59;;;;;;;10.17;6.23;;;14.10;99.90;;;14.68;100.00;100681.00;3529161;39;100849;-80
2021/07/03 00:57:35;;;;;;;10.47;7.57;;;14.10;99.90;;;14.62;100.00;100681.69;3528102;22;103725;-85
2021/07/03 01:00:39;;;;;;;8.87;6.83;;;14.10;99.90;;;14.68;100.00;100685.56;3587486;22;105499;-83
2021/07/03 01:03:52;;;;;;;10.03;5.57;;;14.00;99.90;;;14.63;100.00;100683.38;3499257;40;102527;-86
2021/07/03 01:06:29;;;;;;;7.90;5.43;;;14.00;99.90;;;14.61;100.00;100681.88;3609854;22;104638;-81
2021/07/03 01:08:57;;;;;;;13.77;6.90;;;14.00;99.90;;;14.54;100.00;100679.03;3520872;39;100675;-86
2021/07/03 01:11:26;;;;;;;8.57;5.57;;;13.90;99.90;;;14.53;100.00;100682.75;3501919;40;102426;-81
2021/07/03 01:13:55;;;;;;;7.73;5.50;;;15.10;99.90;;;14.51;100.00;100670.47;3537548;22;105618;-81
2021/07/03 01:16:23;;;;;;;8.70;5.43;;;13.90;99.90;;;14.51;100.00;100678.53;3510148;39;100615;-83
2021/07/03 01:18:50;;;;;;;6.70;5.20;;;13.90;99.90;;;14.53;100.00;100677.34;3517821;39;101979;-82
2021/07/03 01:21:20;;;;;;;7.50;6.07;;;13.90;99.90;;;14.51;100.00;100673.16;3514588;39;102600;-86
2021/07/03 01:23:49;;;;;;;5.90;4.33;;;14.60;99.90;;;14.48;100.00;100676.19;3537041;22;101841;-81
2021/07/03 01:26:16;;;;;;;8.20;5.63;;;13.90;99.90;;;14.46;100.00;100680.94;3474133;40;100913;-85
2021/07/03 01:28:44;;;;;;;8.40;5.40;;;14.00;99.90;;;14.44;100.00;100673.03;3522787;23;105124;-87
2021/07/03 01:31:14;;;;;;;6.87;5.33;;;13.90;99.90;;;14.44;100.00;100677.56;3662530;22;106258;-81
2021/07/03 01:33:42;;;;;;;6.37;4.93;;;15.00;99.90;;;14.49;100.00;100675.19;3486430;40;100285;-84
2021/07/03 01:36:45;;;;;;;6.47;4.37;;;14.90;99.90;;;14.40;100.00;100671.69;3693352;22;105481;-83
2021/07/03 01:39:23;;;;;;;8.70;5.03;;;13.90;99.90;;;14.38;100.00;100682.59;3412472;22;107686;-84
2021/07/03 01:41:52;;;;;;;7.83;5.47;;;13.50;99.90;;;14.41;100.00;100676.06;3546936;23;103899;-82
2021/07/03 01:44:24;;;;;;;6.93;4.87;;;13.90;99.90;;;14.45;100.00;100681.94;3529705;22;107180;-87
2021/07/03 01:46:52;;;;;;;5.93;4.90;;;14.60;99.90;;;14.41;100.00;100686.81;3627362;22;102104;-87
2021/07/03 01:49:20;;;;;;;5.47;4.90;;;14.60;99.90;;;14.49;100.00;100685.94;3584512;22;103386;-81
2021/07/03 01:52:24;;;;;;;7.13;4.77;;;13.90;99.90;;;14.49;100.00;100685.94;3496507;22;106498;-82
2021/07/03 01:55:01;;;;;;;8.07;4.97;;;13.90;99.90;;;14.50;100.00;100682.25;3583108;22;105719;-85
2021/07/03 01:57:30;;;;;;;7.63;5.23;;;13.90;99.90;;;14.50;100.00;100679.56;3584279;22;104033;-82
2021/07/03 02:00:17;;;;;;;5.57;4.37;;;14.00;99.90;;;14.51;100.00;100682.06;3521231;39;101422;-85
2021/07/03 02:02:47;;;;;;;5.73;4.67;;;14.00;99.90;;;14.52;100.00;100680.22;3642413;22;106142;-87
2021/07/03 02:05:16;;;;;;;6.43;4.83;;;14.00;99.90;;;14.54;100.00;100687.13;3519361;39;101179;-83
2021/07/03 02:10:12;;;;;;;9.50;5.50;;;14.10;99.90;;;14.58;100.00;100691.16;3596488;22;104226;-83
2021/07/03 02:12:41;;;;;;;6.77;4.33;;;14.20;99.90;;;14.59;100.00;100687.41;3500744;22;105804;-82
2021/07/03 02:15:54;;;;;;;11.20;4.17;;;14.20;99.90;;;14.67;100.00;100679.31;3521646;22;106515;-86
2021/07/03 02:19:09;;;;;;;5.57;4.10;;;14.20;99.90;;;14.68;100.00;100685.56;3518956;22;100780;-85
2021/07/03 02:22:22;;;;;;;5.33;4.07;;;14.30;99.90;;;14.69;100.00;100674.59;3574584;22;106398;-82
2021/07/03 02:25:37;;;;;;;6.43;4.73;;;15.30;99.90;;;14.70;100.00;100675.44;3514373;39;103174;-81
2021/07/03 02:28:52;;;;;;;5.17;3.83;;;14.30;99.90;;;14.68;100.00;100664.00;3525276;39;102018;-81
2021/07/03 02:31:30;;;;;;;7.67;4.43;;;14.30;99.90;;;14.63;100.00;100661.81;3575052;22;105334;-88
2021/07/03 02:34:04;;;;;;;6.10;4.37;;;15.20;99.90;;;14.67;100.00;100662.31;3506438;39;102757;-81
2021/07/03 02:36:33;;;;;;;5.00;4.17;;;14.40;99.90;;;14.64;100.00;100668.91;3506255;39;103005;-81
2021/07/03 02:39:05;;;;;;;8.37;4.97;;;14.40;99.90;;;14.63;100.00;100663.69;3504912;39;102299;-85
2021/07/03 02:41:43;;;;;;;5.33;3.60;;;14.30;99.90;;;14.65;100.00;100665.19;3620120;22;104569;-87
2021/07/03 02:44:10;;;;;;;5.13;4.13;;;14.80;99.90;;;14.60;100.00;100664.88;3540918;22;102276;-87
2021/07/03 02:46:37;;;;;;;5.77;4.43;;;14.20;99.90;;;14.60;100.00;100662.16;3576472;23;103609;-86
2021/07/03 02:49:04;;;;;;;5.13;4.20;;;14.40;99.90;;;14.65;100.00;100657.09;3564323;22;102214;-86
2021/07/03 02:52:10;;;;;;;7.43;4.40;;;15.50;99.90;;;14.68;100.00;100662.16;3533820;23;102416;-82
2021/07/03 02:55:13;;;;;;;7.13;4.27;;;15.20;99.90;;;14.69;100.00;100657.59;3560087;22;104172;-87
2021/07/03 02:57:50;;;;;;;5.67;4.23;;;14.90;99.90;;;14.70;100.00;100654.75;3525838;23;103850;-83
2021/07/03 03:00:19;;;;;;;6.77;4.50;;;14.40;99.90;;;14.72;100.00;100659.94;3552659;22;106255;-84
2021/07/03 03:02:50;;;;;;;6.93;4.33;;;14.40;99.90;;;14.72;100.00;100652.69;3618858;22;105505;-86
2021/07/03 03:05:18;;;;;;;7.73;4.60;;;13.10;99.90;;;14.73;100.00;100651.69;3589251;22;102962;-83
2021/07/03 03:08:21;;;;;;;4.80;3.93;;;14.50;99.90;;;14.79;100.00;100652.00;3550490;22;105804;-82
2021/07/03 03:11:34;;;;;;;7.47;4.63;;;14.50;99.90;;;14.76;100.00;100650.50;3548039;22;107212;-82
2021/07/03 03:14:12;;;;;;;5.47;4.13;;;14.50;99.90;;;14.72;100.00;100657.22;3630920;22;106703;-81
2021/07/03 03:16:39;;;;;;;6.77;4.93;;;15.10;99.90;;;14.76;100.00;100649.66;3305710;22;109250;-86
2021/07/03 03:19:08;;;;;;;8.57;4.60;;;14.80;99.90;;;14.81;100.00;100652.66;3575986;22;105163;-82
2021/07/03 03:21:38;;;;;;;5.90;4.13;;;15.60;99.90;;;14.81;100.00;100658.91;3519981;39;100792;-81
2021/07/03 03:24:06;;;;;;;7.73;5.00;;;14.50;99.90;;;14.86;100.00;100653.78;3561746;22;105084;-81
2021/07/03 03:26:34;;;;;;;7.30;4.80;;;14.50;99.90;;;14.87;100.00;100657.34;3619898;22;105251;-83
2021/07/03 03:29:02;;;;;;;6.93;4.80;;;14.50;99.90;;;14.90;100.00;100648.91;3531126;22;102029;-82
2021/07/03 03:31:32;;;;;;;7.60;4.70;;;15.20;99.90;;;14.93;100.00;100652.09;3529563;39;102083;-83
2021/07/03 03:34:03;;;;;;;6.57;4.27;;;14.60;99.90;;;14.94;100.00;100648.38;3490275;22;104182;-85
2021/07/03 03:36:31;;;;;;;9.07;4.73;;;14.60;99.90;;;14.96;100.00;100648.22;3539226;22;104021;-82
2021/07/03 03:38:58;;;;;;;6.60;5.27;;;15.00;99.90;;;15.12;100.00;100656.16;3522810;39;102743;-82
2021/07/03 03:41:26;;;;;;;9.50;4.87;;;14.70;99.90;;;15.18;100.00;100644.69;3550001;22;103750;-86
2021/07/03 03:43:53;;;;;;;7.60;4.67;;;15.20;99.90;;;15.28;100.00;100642.59;3503574;40;100531;-86
2021/07/03 03:46:24;;;;;;;6.90;4.33;;;15.80;99.90;;;15.36;100.00;100638.97;3547578;22;103373;-82
2021/07/03 03:48:54;;;;;;;6.00;4.37;;;14.90;99.90;;;15.38;100.00;100634.25;3621398;22;104350;-86
2021/07/03 03:51:24;;;;;;;5.90;4.70;;;15.00;99.90;;;15.52;100.00;100628.06;3539514;22;103026;-79
2021/07/03 03:53:51;;;;;;;9.67;4.80;;;15.00;99.90;;;15.65;100.00;100622.09;3540816;22;104546;-84
2021/07/03 03:56:18;;;;;;;7.40;4.93;;;15.00;99.90;;;15.91;100.00;100619.81;3523711;39;101716;-84
2021/07/03 03:58:46;;;;;;;9.97;4.57;;;15.10;99.90;;;15.89;100.00;100621.00;3513254;39;101797;-85
2021/07/03 04:01:21;;;;;;;6.40;4.43;;;15.10;99.90;;;16.01;100.00;100614.13;3507893;39;100999;-82
2021/07/03 04:03:48;;;;;;;9.67;4.00;;;15.80;99.90;;;16.22;100.00;100611.50;3509580;39;99885;-86
2021/07/03 04:06:17;;;;;;;9.03;4.97;;;16.10;99.90;;;16.11;100.00;100611.97;3505830;40;103021;-81
2021/07/03 04:08:45;;;;;;;6.90;4.25;;;15.40;99.90;;;16.30;100.00;100608.72;3501272;40;103760;-86
2021/07/03 04:11:12;;;;;;;10.25;4.95;;;15.50;99.90;;;16.30;100.00;100605.19;3503372;40;102246;-85
2021/07/03 04:13:39;;;;;;;5.60;4.37;;;15.50;99.90;;;16.42;100.00;100609.09;3501628;40;100663;-85
2021/07/03 04:16:06;;;;;;;6.20;4.85;;;15.60;99.90;;;16.58;100.00;100603.47;3514015;39;101697;-86
2021/07/03 04:18:33;;;;;;;5.65;3.70;;;16.50;99.90;;;16.43;100.00;100595.41;3507043;40;101049;-86
2021/07/03 04:21:02;;;;;;;6.15;4.03;;;16.40;99.90;;;16.49;100.00;100586.53;3504182;40;102750;-86
2021/07/03 04:23:31;;;;;;;7.50;3.95;;;15.70;99.90;;;16.46;100.00;100588.75;3511951;40;100241;-86
2021/07/03 04:25:58;;;;;;;9.15;4.18;;;15.80;99.90;;;16.52;100.00;100582.63;3521653;39;100969;-86
2021/07/03 04:30:55;;;;;;;7.25;4.65;;;15.80;99.90;;;16.46;100.00;100568.00;3499390;40;101317;-87
2021/07/03 04:33:22;;;;;;;10.27;4.15;;;16.10;99.90;;;16.48;100.00;100562.41;3539711;22;103981;-81
2021/07/03 04:35:51;;;;;;;8.20;3.90;;;15.80;99.90;;;16.31;100.00;100567.22;3526279;39;102406;-85
2021/07/03 04:38:19;;;;;;;7.93;4.63;;;15.80;99.90;;;16.63;100.00;100562.41;3527883;39;102963;-81
2021/07/03 04:40:48;;;;;;;6.63;4.22;;;16.90;99.90;;;16.79;100.00;100560.31;3518678;39;100294;-87
2021/07/03 04:43:15;;;;;;;8.13;3.88;;;15.20;99.90;;;16.84;100.00;100560.56;3513466;39;100590;-83
2021/07/03 04:45:42;;;;;;;6.15;3.75;;;16.40;99.90;;;16.98;100.00;100558.81;3513191;39;103595;-85
2021/07/03 04:48:09;;;;;;;6.20;4.28;;;16.00;99.90;;;17.11;100.00;100555.41;3485112;39;101321;-82
2021/07/03 04:50:40;;;;;;;6.43;4.18;;;16.10;99.90;;;17.12;100.00;100549.81;3475499;39;102812;-90
2021/07/03 04:53:07;;;;;;;8.40;5.20;;;16.20;99.90;;;17.16;100.00;100548.41;3476369;40;100330;-81
2021/07/03 04:55:34;;;;;;;11.50;4.68;;;16.30;99.90;;;17.24;100.00;100536.59;3478347;40;100894;-86
2021/07/03 04:58:03;;;;;;;6.18;3.83;;;16.40;99.90;;;17.39;100.00;100541.94;3474301;40;101393;-87
2021/07/03 05:00:30;;;;;;;10.00;5.18;;;15.80;99.90;;;17.51;100.00;100540.34;3486365;40;100759;-86
2021/07/03 05:02:58;;;;;;;6.20;3.42;;;16.60;99.90;;;17.80;100.00;100532.03;3470841;40;100364;-81
2021/07/03 05:05:25;;;;;;;10.60;5.25;;;16.80;99.90;;;17.83;100.00;100526.22;3473276;40;102549;-82
2021/07/03 05:07:52;;;;;;;10.30;4.40;;;17.00;99.90;;;18.04;100.00;100516.38;3474911;40;101529;-81
2021/07/03 05:10:20;;;;;;;6.63;4.40;;;17.10;99.90;;;17.79;100.00;100519.56;3473830;40;102732;-84
2021/07/03 05:12:47;;;;;;;8.10;4.68;;;17.30;99.90;;;17.55;100.00;100518.13;3483781;40;100136;-86
2021/07/03 05:15:15;;;;;;;7.38;4.78;;;18.50;99.90;;;17.45;100.00;100514.91;3529245;22;102916;-81
2021/07/03 05:17:42;;;;;;;7.05;4.43;;;17.40;99.90;;;17.56;100.00;100522.47;3510184;39;101046;-82
2021/07/03 05:20:12;;;;;;;6.53;4.47;;;17.50;99.90;;;17.49;100.00;100516.22;3510360;40;100574;-85
2021/07/03 05:22:39;;;;;;;8.52;4.90;;;17.50;99.90;;;17.55;100.00;100520.00;3542639;22;102344;-80
2021/07/03 05:25:07;;;;;;;7.80;4.22;;;17.60;99.90;;;17.60;100.00;100518.34;3503496;40;102855;-84
2021/07/03 05:27:34;;;;;;;8.75;4.15;;;17.60;99.90;;;17.73;100.00;100522.22;3505680;40;102997;-83
2021/07/03 05:30:01;;;;;;;8.20;4.75;;;17.70;99.90;;;17.66;100.00;100521.34;3499592;40;100476;-81
2021/07/03 05:32:29;;;;;;;8.90;5.00;;;17.70;99.90;;;17.71;100.00;100521.56;3527330;22;100035;-82
2021/07/03 05:34:56;;;;;;;8.38;4.60;;;17.80;99.90;;;17.85;100.00;100521.47;3518919;39;100706;-82
2021/07/03 05:37:23;;;;;;;10.43;5.70;;;17.80;99.90;;;17.78;100.00;100520.59;3518116;39;101046;-86
2021/07/03 05:39:51;;;;;;;13.55;5.72;;;17.90;99.90;;;17.78;100.00;100515.19;3519775;39;100893;-81
2021/07/03 05:42:18;;;;;;;13.48;6.00;;;18.00;99.90;;;18.04;100.00;100521.78;3522611;39;99922;-80
2021/07/03 05:44:45;;;;;;;9.38;6.20;;;18.00;99.90;;;17.90;100.00;100516.28;3508953;39;100977;-81
2021/07/03 05:47:12;;;;;;;14.07;6.13;;;18.10;99.90;;;18.01;100.00;100520.31;3502737;39;101370;-82
2021/07/03 05:49:41;;;;;;;9.48;5.63;;;18.20;99.90;;;18.14;100.00;100520.38;3515939;39;100485;-80
2021/07/03 05:52:08;;;;;;;7.53;5.82;;;18.20;99.90;;;18.08;100.00;100518.44;3500696;39;100325;-81
2021/07/03 05:54:35;;;;;;;9.82;5.45;;;18.30;99.90;;;18.15;100.00;100515.78;3522342;39;100952;-81
2021/07/03 05:57:02;;;;;;;11.00;5.68;;;18.40;99.90;;;18.31;100.00;100510.00;3516418;39;103134;-81
2021/07/03 05:59:29;;;;;;;11.00;5.15;;;18.50;99.90;;;18.33;100.00;100512.50;3557798;22;102642;-86
2021/07/03 06:01:56;;;;;;;6.50;5.63;;;18.50;99.90;;;18.18;100.00;100518.06;3521062;39;100287;-85
2021/07/03 06:04:23;;;;;;;8.13;5.28;;;19.50;99.90;;;18.36;100.00;100512.09;3511950;39;103062;-84
2021/07/03 06:06:52;;;;;;;11.23;6.47;;;19.70;99.90;;;18.38;100.00;100510.88;3521432;39;101305;-82
2021/07/03 06:09:19;;;;;;;9.85;6.18;;;18.70;99.90;;;18.34;100.00;100512.31;3515938;39;100490;-85
2021/07/03 06:11:48;;;;;;;11.65;5.13;;;19.90;99.90;;;18.39;100.00;100517.13;3518783;39;100769;-84
2021/07/03 06:14:15;;;;;;;9.93;4.95;;;19.30;99.90;;;18.55;100.00;100508.59;3517755;39;101210;-83
2021/07/03 06:16:42;;;;;;;10.13;5.35;;;18.80;99.90;;;18.58;100.00;100509.06;3502118;39;102928;-81
2021/07/03 06:19:10;;;;;;;7.13;4.95;;;19.30;99.90;;;18.77;100.00;100498.50;3513308;39;100646;-82
2021/07/03 06:21:37;;;;;;;7.53;4.72;;;20.00;99.90;;;18.79;100.00;100494.50;3514338;39;100137;-83
2021/07/03 06:24:07;;;;;;;9.32;5.57;;;19.10;99.90;;;19.14;100.00;100497.06;3510756;39;101182;-81
2021/07/03 06:26:35;;;;;;;9.32;5.63;;;19.20;99.90;;;19.17;100.00;100492.03;3513086;39;101713;-83
2021/07/03 06:29:02;;;;;;;8.75;5.60;;;20.30;99.90;;;19.76;100.00;100487.59;3509461;39;101015;-84
2021/07/03 06:31:29;;;;;;;9.48;6.25;;;19.60;99.90;;;19.67;100.00;100485.09;3523691;39;100021;-85
2021/07/03 06:33:56;;;;;;;8.85;5.35;;;19.90;99.90;;;19.83;100.00;100485.69;3508579;39;102245;-85
2021/07/03 06:36:25;;;;;;;7.40;5.47;;;21.00;99.90;;;19.48;100.00;100480.53;3517049;39;101450;-83
2021/07/03 06:38:52;;;;;;;12.27;5.65;;;21.10;99.90;;;19.35;100.00;100475.97;3521959;39;100793;-83
2021/07/03 06:41:20;;;;;;;9.65;5.20;;;20.30;99.90;;;19.44;100.00;100478.44;3509917;39;101034;-82
2021/07/03 06:43:47;;;;;;;9.63;4.90;;;20.40;99.90;;;19.80;100.00;100475.25;3509262;39;103086;-85
2021/07/03 06:46:14;;;;;;;13.77;4.88;;;20.50;99.90;;;19.40;100.00;100480.75;3498479;39;101974;-85
2021/07/03 06:48:41;;;;;;;10.68;5.22;;;21.50;99.90;;;19.81;100.00;100474.22;3510808;39;101077;-82
2021/07/03 06:51:08;;;;;;;7.53;4.95;;;21.60;99.90;;;19.47;100.00;100468.00;3512119;39;100220;-83
2021/07/03 06:53:35;;;;;;;6.88;5.40;;;21.50;99.90;;;19.37;100.00;100471.16;3509610;39;101129;-84
2021/07/03 06:56:02;;;;;;;9.35;4.82;;;20.70;99.90;;;19.33;100.00;100479.91;3513898;39;102674;-84
2021/07/03 06:58:30;;;;;;;7.13;5.28;;;20.70;99.90;;;19.46;100.00;100466.34;3510490;39;100894;-85
2021/07/03 07:01:03;;;;;;;8.77;5.00;;;20.50;99.90;;;19.52;100.00;100464.69;3514402;39;100013;-85
2021/07/03 07:03:30;;;;;;;11.82;5.55;;;21.60;99.90;;;19.41;100.00;100452.56;3511791;39;100418;-82
2021/07/03 07:05:57;;;;;;;6.10;4.65;;;20.60;99.90;;;19.40;100.00;100458.22;3503862;39;102755;-85
2021/07/03 07:08:24;;;;;;;7.82;5.65;;;20.80;99.90;;;19.65;100.00;100465.50;3517237;39;100646;-85
2021/07/03 07:10:51;;;;;;;9.70;5.13;;;20.70;99.90;;;19.91;100.00;100461.84;3512894;39;100385;-82
2021/07/03 07:13:18;;;;;;;7.00;4.10;;;21.50;99.90;;;20.05;100.00;100457.19;3508489;39;101184;-81
2021/07/03 07:15:47;;;;;;;7.38;3.72;;;21.70;99.90;;;20.63;100.00;100454.41;3512243;39;101356;-82
2021/07/03 07:18:14;;;;;;;9.98;4.43;;;20.90;99.90;;;20.31;100.00;100450.81;3510864;39;100940;-84
2021/07/03 07:20:42;;;;;;;15.23;5.25;;;21.10;99.90;;;19.98;100.00;100449.09;3514865;39;100257;-83
2021/07/03 07:23:09;;;;;;;7.25;4.50;;;21.80;99.90;;;19.92;100.00;100452.66;3510066;39;101065;-82
2021/07/03 07:25:36;;;;;;;10.73;5.10;;;22.40;99.90;;;20.56;100.00;100445.44;3519815;39;100344;-83
2021/07/03 07:28:03;;;;;;;9.73;4.72;;;21.40;99.90;;;19.97;100.00;100443.88;3509577;39;100473;-81
2021/07/03 07:30:30;;;;;;;9.18;4.65;;;21.50;99.90;;;20.11;100.00;100431.91;3498502;39;100662;-82
2021/07/03 07:32:59;;;;;;;7.32;4.82;;;21.50;99.90;;;20.56;100.00;100431.88;3505426;39;101024;-81
2021/07/03 07:35:26;;;;;;;7.10;5.03;;;21.70;99.90;;;20.44;100.00;100427.13;3506755;39;101018;-84
2021/07/03 07:37:53;;;;;;;5.88;4.05;;;21.80;99.90;;;21.00;100.00;100422.75;3505497;39;100498;-82
2021/07/03 07:40:21;;;;;;;7.88;4.57;;;23.00;99.90;;;20.75;100.00;100415.41;3505326;39;101202;-81
2021/07/03 07:42:48;;;;;;;10.73;4.63;;;22.10;99.90;;;20.54;100.00;100415.78;3505376;39;100993;-84
2021/07/03 07:45:15;;;;;;;5.53;4.43;;;22.30;99.90;;;20.50;100.00;100422.72;3497155;39;104454;-84
2021/07/03 07:47:42;;;;;;;9.75;4.75;;;22.40;99.90;;;20.55;100.00;100419.31;3502815;39;102764;-82
2021/07/03 07:50:11;;;;;;;7.10;3.78;;;22.50;99.90;;;20.96;100.00;100418.78;3510527;39;100142;-82
2021/07/03 07:52:38;;;;;;;6.47;4.03;;;23.10;99.90;;;21.35;100.00;100409.47;3498009;39;103577;-83
2021/07/03 07:55:07;;;;;;;8.00;4.82;;;23.70;99.90;;;21.34;100.00;100408.63;3506584;39;100972;-81
2021/07/03 07:57:34;;;;;;;7.15;3.28;;;22.90;99.90;;;21.77;100.00;100407.69;3505281;39;100774;-82
2021/07/03 08:00:01;;;;;;;8.43;4.45;;;23.10;99.90;;;22.36;100.00;100409.69;3506850;39;100187;-82
2021/07/03 08:02:28;;;;;;;4.82;4.05;;;23.30;99.90;;;22.31;100.00;100406.81;3505084;39;101156;-81
2021/07/03 08:04:55;;;;;;;5.10;3.47;;;23.60;99.90;;;22.96;100.00;100403.28;3519996;39;101781;-82
2021/07/03 08:07:23;;;;;;;6.28;3.83;;;23.90;99.90;;;22.21;100.00;100395.63;3504162;39;101433;-81
2021/07/03 08:09:50;;;;;;;6.63;3.88;;;24.20;99.50;;;21.90;100.00;100398.53;3507578;39;100468;-82
2021/07/03 08:12:17;;;;;;;4.47;3.35;;;25.00;97.40;;;22.31;100.00;100397.78;3496422;39;102971;-82
2021/07/03 08:14:44;;;;;;;4.53;3.70;;;24.80;97.10;;;22.44;100.00;100387.53;3506667;39;101311;-83
2021/07/03 08:17:11;;;;;;;6.03;3.03;;;24.70;97.00;;;21.94;100.00;100389.69;3507243;39;100609;-82
2021/07/03 08:19:39;;;;;;;7.72;3.13;;;25.20;95.20;;;22.62;100.00;100397.53;3505054;39;100286;-84
2021/07/03 08:22:06;;;;;;;5.65;3.17;;;24.90;94.80;;;22.48;100.00;100385.16;3508216;39;101397;-82
2021/07/03 08:24:35;;;;;;;4.57;3.40;;;25.00;94.40;;;22.89;100.00;100384.28;3507445;39;101056;-84
2021/07/03 08:27:02;;;;;;;6.63;2.85;;;25.30;94.40;;;23.02;100.00;100383.22;3510992;39;100771;-82
2021/07/03 08:29:29;;;;;;;3.85;2.70;;;25.40;93.30;;;22.91;100.00;100382.16;3506918;39;100129;-83
2021/07/03 08:31:57;;;;;;;2.90;2.60;;;26.10;92.20;;;22.67;100.00;100377.72;3510357;39;101338;-86
2021/07/03 08:34:24;;;;;;;3.70;2.05;;;26.20;91.50;;;23.41;100.00;100377.03;3509956;39;101199;-83
2021/07/03 08:36:51;;;;;;;3.25;2.10;;;25.70;90.30;;;23.59;100.00;100376.09;3504914;39;101426;-84
2021/07/03 08:39:18;;;;;;;2.67;2.42;;;25.80;90.40;;;23.64;100.00;100368.81;3502211;39;101490;-83
2021/07/03 08:41:46;;;;;;;4.15;2.70;;;26.10;90.00;;;22.93;100.00;100363.66;3507227;39;100969;-83
2021/07/03 08:44:16;;;;;;;4.13;2.20;;;26.00;82.00;;;22.47;100.00;100364.41;3498440;39;103446;-81
2021/07/03 08:46:44;;;;;;;2.60;2.10;;;26.00;76.10;;;22.50;100.00;100364.75;3492285;39;103307;-82
2021/07/03 08:49:14;;;;;;;4.22;2.53;;;26.00;77.90;;;23.35;100.00;100363.53;3501750;39;100252;-87
2021/07/03 08:51:43;;;;;;;4.97;2.30;;;25.90;78.60;;;22.62;100.00;100362.09;3505250;39;100294;-83
2021/07/03 08:54:10;;;;;;;4.72;2.80;;;26.40;79.50;;;22.06;100.00;100374.25;3505484;39;100896;-82
2021/07/03 08:56:38;;;;;;;3.17;2.40;;;26.10;76.80;;;22.50;100.00;100370.22;3504747;39;100613;-81
2021/07/03 08:59:19;;;;;;;4.88;2.97;;;25.70;76.20;;;22.84;100.00;100359.63;3504191;39;100092;-82
2021/07/03 09:01:52;;;;;;;8.73;2.17;;;25.70;76.30;;;23.45;100.00;100359.13;3504330;39;101127;-81
2021/07/03 09:04:20;;;;;;;3.20;2.47;;;26.00;77.40;;;23.20;100.00;100355.81;3503501;39;101341;-83
2021/07/03 09:06:47;;;;;;;3.63;2.45;;;25.30;75.10;;;23.00;100.00;100358.91;3504181;39;100554;-81
2021/07/03 09:09:25;;;;;;;5.30;2.92;;;25.90;74.70;;;23.03;100.00;100357.59;3505871;39;100211;-83
2021/07/03 09:11:54;;;;;;;5.22;2.15;;;25.90;73.70;;;22.72;100.00;100348.69;3495315;39;102736;-83
2021/07/03 09:14:29;;;;;;;3.47;2.33;;;26.20;72.60;;;24.18;100.00;100352.09;3503781;39;101309;-82
2021/07/03 09:16:58;;;;;;;3.25;1.92;;;27.00;75.00;;;23.36;100.00;100343.34;3503058;39;100753;-83
2021/07/03 09:19:28;;;;;;;3.95;2.17;;;26.30;73.30;;;24.36;100.00;100348.38;3500126;39;100541;-83
2021/07/03 09:21:55;;;;;;;6.18;2.90;;;26.70;74.00;;;23.20;100.00;100342.19;3514630;39;101147;-82
2021/07/03 09:24:22;;;;;;;3.13;2.13;;;26.80;70.80;;;22.91;100.00;100344.78;3524925;39;99882;-82
2021/07/03 09:26:59;;;;;;;2.58;1.92;;;26.80;70.40;;;22.42;100.00;100348.75;3508865;39;100479;-83
2021/07/03 09:29:27;;;;;;;2.65;1.70;;;26.70;69.40;;;23.28;100.00;100352.72;3494660;39;100157;-83
2021/07/03 09:31:55;;;;;;;2.72;1.80;;;26.60;69.30;;;23.56;100.00;100341.06;3495467;39;103051;-82
2021/07/03 09:34:23;;;;;;;4.53;2.17;;;26.50;69.20;;;24.44;100.00;100339.75;3504498;39;101082;-84
2021/07/03 09:36:50;;;;;;;2.60;2.10;;;26.60;70.40;;;24.39;100.00;100342.38;3503843;39;100536;-83
2021/07/03 09:39:25;;;;;;;5.40;2.45;;;27.10;71.10;;;23.67;100.00;100345.66;3493888;39;101953;-81
2021/07/03 09:41:52;;;;;;;2.50;2.30;;;27.70;69.80;;;23.50;100.00;100336.53;3505079;39;100897;-83
2021/07/03 09:44:19;;;;;;;2.92;2.20;;;27.70;68.30;;;23.01;100.00;100329.72;3505604;39;101286;-83
2021/07/03 09:46:52;;;;;;;2.78;2.33;;;27.40;67.30;;;22.71;100.00;100338.00;3503030;39;101553;-81
2021/07/03 09:49:25;;;;;;;4.00;1.80;;;26.90;66.10;;;24.22;100.00;100331.41;3503577;39;100306;-82
2021/07/03 09:51:53;;;;;;;2.85;1.63;;;27.30;67.20;;;24.23;100.00;100320.22;3494609;39;103528;-82
2021/07/03 09:54:24;;;;;;;4.75;2.15;;;27.10;67.10;;;24.92;100.00;100320.81;3504482;39;101465;-84
2021/07/03 09:56:58;;;;;;;2.72;1.92;;;27.30;67.40;;;24.23;100.00;100322.97;3504907;39;100298;-84
2021/07/03 09:59:27;;;;;;;2.65;1.92;;;27.70;65.30;;;23.35;100.00;100326.13;3505718;39;100179;-84
2021/07/03 10:01:56;;;;;;;2.50;2.15;;;28.60;65.30;;;24.32;100.00;100326.97;3504805;39;100969;-83
2021/07/03 10:04:23;;;;;;;2.17;1.95;;;28.00;64.50;;;23.41;100.00;100327.06;3505264;39;101706;-83
2021/07/03 10:06:58;;;;;;;2.92;1.95;;;28.10;61.40;;;23.62;100.00;100329.97;3512908;39;102685;-82
2021/07/03 10:09:32;;;;;;;1.98;1.52;;;28.20;62.00;;;23.58;100.00;100328.84;3525270;39;99253;-82
2021/07/03 10:12:07;;;;;;;2.72;1.60;;;28.00;62.40;;;23.88;100.00;100327.75;3511807;39;100171;-84
2021/07/03 10:14:39;;;;;;;1.33;1.20;;;28.10;62.70;;;24.10;100.00;100331.47;3495056;39;103497;-81
2021/07/03 10:17:08;;;;;;;1.42;1.23;;;28.20;62.80;;;23.56;100.00;100327.41;3505002;39;100559;-84
2021/07/03 10:19:38;;;;;;;4.05;1.70;;;27.90;61.70;;;23.69;100.00;100329.03;3505533;39;100239;-83
2021/07/03 10:22:15;;;;;;;3.30;1.90;;;27.70;61.70;;;23.85;100.00;100328.25;3496949;39;103092;-83